Time;durP1;ratioP1;P1;durP2;ratioP2;P2;SDS_P1;SDS_P2;PMS_P1;PMS_P2;Temp;Humidity;BMP_temperature;BMP_pressure;BME280_temperature;BME280_humidity;BME280_pressure;Samples;Min_cycle;Max_cycle;Signal;HPM_P1;HPM_P2
2022/12/16 00:00:08;;;;;;;56.67;31.57;;;-3.50;99.90;;;;;;5056017;28;20451;-70
2022/12/16 00:02:35;;;;;;;48.40;32.70;;;-3.60;99.90;;;;;;5056157;28;20847;-69
2022/12/16 00:05:02;;;;;;;50.60;30.53;;;-3.60;99.90;;;;;;5055824;28;20473;-70
2022/12/16 00:07:29;;;;;;;48.30;29.80;;;-3.60;99.90;;;;;;5056021;28;20471;-69
2022/12/16 00:09:56;;;;;;;54.60;30.87;;;-3.60;99.90;;;;;;5054851;28;20459;-70
2022/12/16 00:12:24;;;;;;;52.67;30.87;;;-3.70;99.90;;;;;;5055917;28;20459;-69
2022/12/16 00:14:51;;;;;;;45.20;29.40;;;-3.70;99.90;;;;;;5055549;28;20930;-70
2022/12/16 00:17:18;;;;;;;50.70;30.27;;;-3.80;99.90;;;;;;5055865;28;20834;-69
2022/12/16 00:19:45;;;;;;;50.93;30.70;;;-3.80;99.90;;;;;;5056065;28;20459;-70
2022/12/16 00:22:12;;;;;;;51.77;30.73;;;-3.90;99.90;;;;;;5055752;28;20970;-69
2022/12/16 00:24:39;;;;;;;55.80;30.23;;;-3.80;99.90;;;;;;5056459;28;20920;-68
2022/12/16 00:27:06;;;;;;;52.10;32.30;;;-3.80;99.90;;;;;;5056601;28;20794;-69
2022/12/16 00:29:34;;;;;;;48.77;31.80;;;-3.80;99.90;;;;;;5056725;28;20982;-68
2022/12/16 00:32:01;;;;;;;44.27;31.73;;;-3.90;99.90;;;;;;5056499;28;20455;-68
2022/12/16 00:34:28;;;;;;;50.60;29.70;;;-3.90;99.90;;;;;;5055478;28;20939;-70
2022/12/16 00:36:55;;;;;;;54.50;31.40;;;-3.90;99.90;;;;;;5055304;28;20904;-69
2022/12/16 00:39:23;;;;;;;45.70;30.30;;;-3.80;99.90;;;;;;5055325;28;20919;-69
2022/12/16 00:41:49;;;;;;;48.67;29.17;;;-3.80;99.90;;;;;;5055300;28;20799;-69
2022/12/16 00:44:16;;;;;;;51.70;29.47;;;-3.80;99.90;;;;;;5055168;28;20818;-69
2022/12/16 00:46:44;;;;;;;48.53;28.57;;;-3.80;99.90;;;;;;5055318;28;20444;-70
2022/12/16 00:49:11;;;;;;;47.03;30.33;;;-3.80;99.90;;;;;;5056042;28;20459;-70
2022/12/16 00:51:38;;;;;;;50.17;30.27;;;-3.90;99.90;;;;;;5055202;28;20462;-69
2022/12/16 00:54:04;;;;;;;48.13;29.70;;;-4.00;99.90;;;;;;5055778;28;20455;-71
2022/12/16 00:56:31;;;;;;;51.70;30.60;;;-4.00;99.90;;;;;;5055172;28;20508;-70
2022/12/16 00:58:58;;;;;;;50.23;31.87;;;-4.00;99.90;;;;;;5055179;28;20743;-69
2022/12/16 01:01:25;;;;;;;51.63;31.40;;;-4.00;99.90;;;;;;5054519;28;20479;-69
2022/12/16 01:03:56;;;;;;;60.03;31.57;;;-4.00;99.90;;;;;;5054884;28;20463;-69
2022/12/16 01:06:23;;;;;;;57.60;30.70;;;-4.00;99.90;;;;;;5055028;28;20439;-69
2022/12/16 01:08:49;;;;;;;49.60;30.10;;;-4.00;99.90;;;;;;5054502;28;20890;-69
2022/12/16 01:11:18;;;;;;;50.10;29.47;;;-4.00;99.90;;;;;;5054696;28;20462;-68
2022/12/16 01:13:45;;;;;;;46.80;30.70;;;-4.00;99.90;;;;;;5054648;28;20459;-69
2022/12/16 01:16:11;;;;;;;49.13;29.17;;;-4.00;99.90;;;;;;5054465;28;20551;-70
2022/12/16 01:18:38;;;;;;;45.83;27.23;;;-4.00;99.90;;;;;;5054605;28;20459;-68
2022/12/16 01:21:08;;;;;;;49.80;28.20;;;-4.10;99.90;;;;;;5054504;28;20479;-68
2022/12/16 01:23:35;;;;;;;44.70;29.03;;;-4.10;99.90;;;;;;5054750;28;20455;-69
2022/12/16 01:26:02;;;;;;;49.87;28.60;;;-4.10;99.90;;;;;;5054788;28;20558;-70
2022/12/16 01:28:30;;;;;;;45.17;28.70;;;-4.00;99.90;;;;;;5054517;28;20919;-71
2022/12/16 01:31:00;;;;;;;52.63;29.90;;;-4.10;99.90;;;;;;5054682;28;20451;-68
2022/12/16 01:33:27;;;;;;;48.57;28.53;;;-4.00;99.90;;;;;;5055176;28;20443;-69
2022/12/16 01:35:59;;;;;;;49.30;29.10;;;-4.00;99.90;;;;;;5054368;28;20465;-70
2022/12/16 01:38:27;;;;;;;46.60;28.17;;;-4.00;99.90;;;;;;5054728;28;20501;-69
2022/12/16 01:40:54;;;;;;;49.63;28.50;;;-4.00;99.90;;;;;;5054858;28;20491;-68
2022/12/16 01:43:26;;;;;;;53.67;29.87;;;-4.00;99.90;;;;;;5056043;28;20470;-70
2022/12/16 01:45:56;;;;;;;51.67;28.90;;;-3.90;99.90;;;;;;5055567;28;20874;-69
2022/12/16 01:48:37;;;;;;;53.77;29.30;;;-4.00;99.90;;;;;;5055949;28;20444;-69
2022/12/16 01:51:10;;;;;;;52.23;31.20;;;-3.90;99.90;;;;;;5054438;28;20901;-70
2022/12/16 01:53:41;;;;;;;47.33;29.50;;;-3.90;99.90;;;;;;5054339;28;20910;-68
2022/12/16 01:56:08;;;;;;;48.93;28.23;;;-3.90;99.90;;;;;;5054243;28;20462;-69
2022/12/16 01:58:40;;;;;;;44.23;27.20;;;-4.00;99.90;;;;;;5054356;28;20455;-70
2022/12/16 02:01:07;;;;;;;42.50;27.50;;;-4.00;99.90;;;;;;5054879;28;20494;-69
2022/12/16 02:03:35;;;;;;;44.03;28.70;;;-4.00;99.90;;;;;;5054292;28;20466;-69
2022/12/16 02:06:03;;;;;;;50.93;26.97;;;-4.00;99.90;;;;;;5054377;28;20455;-68
2022/12/16 02:08:30;;;;;;;44.10;28.13;;;-4.00;99.90;;;;;;5054194;28;20455;-70
2022/12/16 02:11:14;;;;;;;39.97;27.10;;;-4.00;99.90;;;;;;5054530;28;20451;-69
2022/12/16 02:13:57;;;;;;;47.53;29.20;;;-3.90;99.90;;;;;;5054348;28;20444;-69
2022/12/16 02:16:31;;;;;;;45.87;27.70;;;-4.00;99.90;;;;;;5054340;28;20453;-69
2022/12/16 02:19:02;;;;;;;45.30;26.07;;;-4.10;99.90;;;;;;5054370;28;20447;-70
2022/12/16 02:21:44;;;;;;;44.07;27.80;;;-4.00;99.90;;;;;;5054409;28;20467;-70
2022/12/16 02:24:56;;;;;;;46.20;27.97;;;-4.10;99.90;;;;;;5054529;28;20450;-69
2022/12/16 02:27:45;;;;;;;48.33;27.20;;;-4.10;99.90;;;;;;5054135;28;20435;-67
2022/12/16 02:30:50;;;;;;;41.80;26.30;;;-4.10;99.90;;;;;;5051132;28;20478;-68
2022/12/16 02:33:47;;;;;;;44.27;27.17;;;-4.10;99.90;;;;;;5054978;28;20445;-69
2022/12/16 02:36:26;;;;;;;42.00;26.40;;;-4.20;99.90;;;;;;5058365;28;20526;-70
2022/12/16 02:38:59;;;;;;;49.47;28.90;;;-4.20;99.90;;;;;;5058296;28;20434;-68
2022/12/16 02:41:33;;;;;;;43.47;26.97;;;-4.20;99.90;;;;;;5058175;28;20467;-69
2022/12/16 02:44:04;;;;;;;42.37;27.27;;;-4.20;99.90;;;;;;5057948;28;20530;-69
2022/12/16 02:46:33;;;;;;;44.87;27.33;;;-4.20;99.90;;;;;;5060971;28;20450;-70
2022/12/16 02:49:06;;;;;;;49.77;27.70;;;-4.20;99.90;;;;;;5058846;28;20515;-69
2022/12/16 02:51:37;;;;;;;46.53;27.17;;;-4.20;99.90;;;;;;5058204;28;20435;-69
2022/12/16 02:54:07;;;;;;;45.80;28.10;;;-4.20;99.90;;;;;;5059348;28;20443;-70
2022/12/16 02:56:47;;;;;;;47.17;29.33;;;-4.20;99.90;;;;;;5057958;28;20506;-70
2022/12/16 02:59:24;;;;;;;47.77;27.90;;;-4.20;99.90;;;;;;5058218;28;20888;-69
2022/12/16 03:01:57;;;;;;;43.17;26.10;;;-4.20;99.90;;;;;;5057572;28;20478;-70
2022/12/16 03:04:30;;;;;;;42.10;26.83;;;-4.20;99.90;;;;;;5057457;28;20458;-70
2022/12/16 03:07:00;;;;;;;43.50;28.03;;;-4.20;99.90;;;;;;5057526;28;20450;-69
2022/12/16 03:09:31;;;;;;;47.40;25.20;;;-4.20;99.90;;;;;;5057536;28;20455;-69
2022/12/16 03:12:00;;;;;;;43.83;27.87;;;-4.20;99.90;;;;;;5057634;28;20838;-69
2022/12/16 03:14:32;;;;;;;38.50;25.10;;;-4.20;99.90;;;;;;5057503;28;20470;-68
2022/12/16 03:17:01;;;;;;;44.77;28.07;;;-4.30;99.90;;;;;;5057518;28;20443;-69
2022/12/16 03:19:29;;;;;;;44.23;25.57;;;-4.30;99.90;;;;;;5057392;28;20463;-69
2022/12/16 03:22:02;;;;;;;44.77;28.73;;;-4.30;99.90;;;;;;5057259;28;20536;-69
2022/12/16 03:24:29;;;;;;;43.70;25.60;;;-4.30;99.90;;;;;;5057348;28;20443;-69
2022/12/16 03:27:06;;;;;;;47.77;25.60;;;-4.40;99.90;;;;;;5056942;28;20467;-69
2022/12/16 03:29:40;;;;;;;45.80;27.20;;;-4.40;99.90;;;;;;5057498;28;20447;-69
2022/12/16 03:32:14;;;;;;;45.17;27.50;;;-4.40;99.90;;;;;;5057819;28;20443;-69
2022/12/16 03:34:45;;;;;;;38.63;24.60;;;-4.40;99.90;;;;;;5056946;28;20454;-68
2022/12/16 03:37:13;;;;;;;39.50;27.43;;;-4.40;99.90;;;;;;5057478;28;20458;-67
2022/12/16 03:39:43;;;;;;;47.47;28.33;;;-4.40;99.90;;;;;;5057082;28;20463;-69
2022/12/16 03:42:11;;;;;;;47.33;28.23;;;-4.40;99.90;;;;;;5057311;28;20482;-69
2022/12/16 03:44:39;;;;;;;40.23;25.33;;;-4.40;99.90;;;;;;5056654;28;20486;-69
2022/12/16 03:47:06;;;;;;;44.77;26.30;;;-4.40;99.90;;;;;;5056770;28;20470;-70
2022/12/16 03:49:34;;;;;;;42.57;26.63;;;-4.40;99.90;;;;;;5056576;28;20455;-69
2022/12/16 03:52:01;;;;;;;42.87;26.50;;;-4.40;99.90;;;;;;5056419;28;20463;-70
2022/12/16 03:54:28;;;;;;;43.03;26.77;;;-4.40;99.90;;;;;;5056912;28;20451;-69
2022/12/16 03:56:55;;;;;;;45.33;27.17;;;-4.40;99.90;;;;;;5056710;28;20459;-69
2022/12/16 03:59:21;;;;;;;41.47;26.20;;;-4.40;99.90;;;;;;5057339;28;20789;-70
2022/12/16 04:01:48;;;;;;;45.07;26.30;;;-4.40;99.90;;;;;;5057400;28;20510;-69
2022/12/16 04:04:15;;;;;;;44.00;26.80;;;-4.40;99.90;;;;;;5057081;28;20787;-69
2022/12/16 04:06:43;;;;;;;44.83;26.77;;;-4.40;99.90;;;;;;5056945;28;20459;-70
2022/12/16 04:09:10;;;;;;;51.63;29.40;;;-4.40;99.90;;;;;;5057110;28;20459;-70
2022/12/16 04:25:27;;;;;;;49.63;29.00;;;-4.50;99.90;;;;;;5055961;28;20493;-69
2022/12/16 04:27:54;;;;;;;48.17;27.57;;;-4.50;99.90;;;;;;5055666;28;20962;-68
2022/12/16 04:30:21;;;;;;;44.43;25.90;;;-4.60;99.90;;;;;;5055687;28;20907;-69
